sensor_id;sensor_type;location;lat;lon;timestamp;P1;durP1;ratioP1;P2;durP2;ratioP2
12332;SDS011;6232;48.094;11.288;2022-12-07T00:02:30;15.67;;;9.83;;
12332;SDS011;6232;48.094;11.288;2022-12-07T00:05:16;14.17;;;10.40;;
12332;SDS011;6232;48.094;11.288;2022-12-07T00:08:01;12.77;;;8.87;;
12332;SDS011;6232;48.094;11.288;2022-12-07T00:10:47;11.93;;;9.37;;
12332;SDS011;6232;48.094;11.288;2022-12-07T00:13:33;13.77;;;10.10;;
12332;SDS011;6232;48.094;11.288;2022-12-07T00:16:19;13.70;;;9.70;;
12332;SDS011;6232;48.094;11.288;2022-12-07T00:19:05;14.83;;;9.43;;
12332;SDS011;6232;48.094;11.288;2022-12-07T00:21:50;16.50;;;10.97;;
12332;SDS011;6232;48.094;11.288;2022-12-07T00:24:36;15.30;;;10.17;;
12332;SDS011;6232;48.094;11.288;2022-12-07T00:27:21;10.87;;;8.50;;
12332;SDS011;6232;48.094;11.288;2022-12-07T00:30:07;15.30;;;10.30;;
12332;SDS011;6232;48.094;11.288;2022-12-07T00:32:53;15.17;;;9.63;;
12332;SDS011;6232;48.094;11.288;2022-12-07T00:35:38;16.00;;;10.10;;
12332;SDS011;6232;48.094;11.288;2022-12-07T00:38:24;11.07;;;8.73;;
12332;SDS011;6232;48.094;11.288;2022-12-07T00:43:55;17.93;;;9.33;;
12332;SDS011;6232;48.094;11.288;2022-12-07T00:46:41;15.10;;;9.63;;
12332;SDS011;6232;48.094;11.288;2022-12-07T00:49:26;14.90;;;10.30;;
12332;SDS011;6232;48.094;11.288;2022-12-07T00:52:12;22.93;;;10.43;;
12332;SDS011;6232;48.094;11.288;2022-12-07T00:54:57;13.20;;;10.43;;
12332;SDS011;6232;48.094;11.288;2022-12-07T00:57:43;11.50;;;8.50;;
12332;SDS011;6232;48.094;11.288;2022-12-07T01:00:29;10.33;;;8.00;;
12332;SDS011;6232;48.094;11.288;2022-12-07T01:03:14;12.50;;;8.53;;
12332;SDS011;6232;48.094;11.288;2022-12-07T01:06:00;13.63;;;9.53;;
12332;SDS011;6232;48.094;11.288;2022-12-07T01:08:46;15.90;;;9.67;;
12332;SDS011;6232;48.094;11.288;2022-12-07T01:11:32;14.57;;;9.27;;
12332;SDS011;6232;48.094;11.288;2022-12-07T01:14:17;15.60;;;9.37;;
12332;SDS011;6232;48.094;11.288;2022-12-07T01:17:03;11.93;;;9.53;;
12332;SDS011;6232;48.094;11.288;2022-12-07T01:19:48;13.90;;;9.20;;
12332;SDS011;6232;48.094;11.288;2022-12-07T01:22:38;18.93;;;9.90;;
12332;SDS011;6232;48.094;11.288;2022-12-07T01:25:23;14.57;;;9.97;;
12332;SDS011;6232;48.094;11.288;2022-12-07T01:28:09;15.20;;;9.50;;
12332;SDS011;6232;48.094;11.288;2022-12-07T01:30:58;14.93;;;11.10;;
12332;SDS011;6232;48.094;11.288;2022-12-07T01:33:46;15.70;;;9.63;;
12332;SDS011;6232;48.094;11.288;2022-12-07T01:36:33;17.03;;;10.63;;
12332;SDS011;6232;48.094;11.288;2022-12-07T01:39:19;18.60;;;10.80;;
12332;SDS011;6232;48.094;11.288;2022-12-07T01:42:05;17.10;;;9.50;;
12332;SDS011;6232;48.094;11.288;2022-12-07T01:47:55;14.27;;;10.50;;
12332;SDS011;6232;48.094;11.288;2022-12-07T01:50:42;13.97;;;9.77;;
12332;SDS011;6232;48.094;11.288;2022-12-07T01:53:28;14.90;;;9.27;;
12332;SDS011;6232;48.094;11.288;2022-12-07T01:56:17;15.43;;;8.97;;
12332;SDS011;6232;48.094;11.288;2022-12-07T01:59:04;14.43;;;10.00;;
12332;SDS011;6232;48.094;11.288;2022-12-07T02:01:49;13.60;;;9.50;;
12332;SDS011;6232;48.094;11.288;2022-12-07T02:04:35;18.63;;;10.90;;
12332;SDS011;6232;48.094;11.288;2022-12-07T02:07:21;15.00;;;9.93;;
12332;SDS011;6232;48.094;11.288;2022-12-07T02:10:18;12.13;;;9.63;;
12332;SDS011;6232;48.094;11.288;2022-12-07T02:16:06;14.03;;;9.50;;
12332;SDS011;6232;48.094;11.288;2022-12-07T02:21:53;14.10;;;9.40;;
12332;SDS011;6232;48.094;11.288;2022-12-07T02:27:34;14.13;;;9.80;;
12332;SDS011;6232;48.094;11.288;2022-12-07T02:30:21;12.13;;;9.43;;
12332;SDS011;6232;48.094;11.288;2022-12-07T02:33:10;13.87;;;9.47;;
12332;SDS011;6232;48.094;11.288;2022-12-07T02:36:00;15.30;;;10.00;;
12332;SDS011;6232;48.094;11.288;2022-12-07T02:41:48;16.80;;;8.80;;
12332;SDS011;6232;48.094;11.288;2022-12-07T02:44:36;19.47;;;9.80;;
12332;SDS011;6232;48.094;11.288;2022-12-07T02:47:22;16.13;;;10.17;;
12332;SDS011;6232;48.094;11.288;2022-12-07T02:50:08;16.23;;;9.27;;
12332;SDS011;6232;48.094;11.288;2022-12-07T02:52:54;14.37;;;10.20;;
12332;SDS011;6232;48.094;11.288;2022-12-07T02:55:40;17.77;;;9.53;;
12332;SDS011;6232;48.094;11.288;2022-12-07T02:58:37;13.23;;;9.30;;
12332;SDS011;6232;48.094;11.288;2022-12-07T03:01:34;14.90;;;8.70;;
12332;SDS011;6232;48.094;11.288;2022-12-07T03:13:47;15.17;;;9.87;;
12332;SDS011;6232;48.094;11.288;2022-12-07T03:16:53;15.53;;;9.27;;
12332;SDS011;6232;48.094;11.288;2022-12-07T03:19:41;11.43;;;9.10;;
12332;SDS011;6232;48.094;11.288;2022-12-07T03:22:29;18.53;;;10.50;;
12332;SDS011;6232;48.094;11.288;2022-12-07T03:25:16;13.50;;;8.80;;
12332;SDS011;6232;48.094;11.288;2022-12-07T03:28:03;13.50;;;8.90;;
12332;SDS011;6232;48.094;11.288;2022-12-07T03:34:22;12.60;;;9.87;;
12332;SDS011;6232;48.094;11.288;2022-12-07T03:36:49;12.27;;;8.67;;
12332;SDS011;6232;48.094;11.288;2022-12-07T03:39:44;14.30;;;9.73;;
12332;SDS011;6232;48.094;11.288;2022-12-07T03:42:31;12.83;;;9.03;;
12332;SDS011;6232;48.094;11.288;2022-12-07T03:45:18;12.60;;;9.20;;
12332;SDS011;6232;48.094;11.288;2022-12-07T03:48:09;13.70;;;8.93;;
12332;SDS011;6232;48.094;11.288;2022-12-07T03:54:07;18.03;;;10.83;;
12332;SDS011;6232;48.094;11.288;2022-12-07T03:56:50;16.03;;;8.27;;
12332;SDS011;6232;48.094;11.288;2022-12-07T03:59:37;18.70;;;8.37;;
12332;SDS011;6232;48.094;11.288;2022-12-07T04:02:23;14.67;;;9.33;;
12332;SDS011;6232;48.094;11.288;2022-12-07T04:05:09;14.63;;;9.03;;
12332;SDS011;6232;48.094;11.288;2022-12-07T04:07:55;11.47;;;9.00;;
12332;SDS011;6232;48.094;11.288;2022-12-07T04:10:40;13.97;;;9.90;;
12332;SDS011;6232;48.094;11.288;2022-12-07T04:13:26;13.87;;;8.90;;
12332;SDS011;6232;48.094;11.288;2022-12-07T04:16:11;13.27;;;9.30;;
12332;SDS011;6232;48.094;11.288;2022-12-07T04:18:57;15.70;;;10.00;;
12332;SDS011;6232;48.094;11.288;2022-12-07T04:21:42;12.47;;;9.10;;
12332;SDS011;6232;48.094;11.288;2022-12-07T04:24:28;12.10;;;9.17;;
12332;SDS011;6232;48.094;11.288;2022-12-07T04:27:14;14.17;;;9.70;;
12332;SDS011;6232;48.094;11.288;2022-12-07T04:29:59;13.17;;;9.03;;
12332;SDS011;6232;48.094;11.288;2022-12-07T04:32:45;11.67;;;8.53;;
12332;SDS011;6232;48.094;11.288;2022-12-07T04:35:30;16.80;;;10.00;;
12332;SDS011;6232;48.094;11.288;2022-12-07T04:38:16;14.93;;;9.80;;
12332;SDS011;6232;48.094;11.288;2022-12-07T04:41:08;16.67;;;10.37;;
12332;SDS011;6232;48.094;11.288;2022-12-07T04:43:59;11.20;;;9.00;;
12332;SDS011;6232;48.094;11.288;2022-12-07T04:46:45;13.20;;;9.20;;
12332;SDS011;6232;48.094;11.288;2022-12-07T04:49:30;15.40;;;9.93;;
12332;SDS011;6232;48.094;11.288;2022-12-07T04:52:16;19.70;;;9.77;;
12332;SDS011;6232;48.094;11.288;2022-12-07T04:55:01;13.10;;;8.57;;
12332;SDS011;6232;48.094;11.288;2022-12-07T04:57:50;15.10;;;10.20;;
12332;SDS011;6232;48.094;11.288;2022-12-07T05:00:35;12.13;;;9.87;;
12332;SDS011;6232;48.094;11.288;2022-12-07T05:03:21;16.37;;;9.57;;
12332;SDS011;6232;48.094;11.288;2022-12-07T05:06:08;16.63;;;9.60;;
12332;SDS011;6232;48.094;11.288;2022-12-07T05:08:53;19.37;;;11.30;;
12332;SDS011;6232;48.094;11.288;2022-12-07T05:11:39;14.00;;;9.30;;
12332;SDS011;6232;48.094;11.288;2022-12-07T05:14:25;13.50;;;9.60;;
12332;SDS011;6232;48.094;11.288;2022-12-07T05:17:10;14.90;;;10.17;;
12332;SDS011;6232;48.094;11.288;2022-12-07T05:19:56;14.50;;;9.50;;
12332;SDS011;6232;48.094;11.288;2022-12-07T05:22:42;16.37;;;9.47;;
12332;SDS011;6232;48.094;11.288;2022-12-07T05:25:27;20.23;;;10.67;;
12332;SDS011;6232;48.094;11.288;2022-12-07T05:28:13;13.03;;;9.73;;
12332;SDS011;6232;48.094;11.288;2022-12-07T05:30:58;15.80;;;10.77;;
12332;SDS011;6232;48.094;11.288;2022-12-07T05:33:44;18.57;;;9.67;;
12332;SDS011;6232;48.094;11.288;2022-12-07T05:36:30;21.30;;;10.70;;
12332;SDS011;6232;48.094;11.288;2022-12-07T05:39:17;25.53;;;9.57;;
12332;SDS011;6232;48.094;11.288;2022-12-07T05:42:02;17.47;;;9.83;;
12332;SDS011;6232;48.094;11.288;2022-12-07T05:44:57;16.53;;;10.40;;
12332;SDS011;6232;48.094;11.288;2022-12-07T05:47:42;16.90;;;10.97;;
12332;SDS011;6232;48.094;11.288;2022-12-07T05:50:28;16.97;;;9.60;;
12332;SDS011;6232;48.094;11.288;2022-12-07T05:53:14;16.53;;;9.97;;
12332;SDS011;6232;48.094;11.288;2022-12-07T05:55:59;14.40;;;10.20;;
12332;SDS011;6232;48.094;11.288;2022-12-07T05:58:45;22.50;;;11.87;;
12332;SDS011;6232;48.094;11.288;2022-12-07T06:04:39;19.10;;;10.97;;
12332;SDS011;6232;48.094;11.288;2022-12-07T06:07:25;13.73;;;10.57;;
12332;SDS011;6232;48.094;11.288;2022-12-07T06:10:11;25.97;;;12.00;;
12332;SDS011;6232;48.094;11.288;2022-12-07T06:12:59;20.93;;;11.40;;
12332;SDS011;6232;48.094;11.288;2022-12-07T06:15:47;22.93;;;12.20;;
12332;SDS011;6232;48.094;11.288;2022-12-07T06:18:33;30.20;;;13.73;;
12332;SDS011;6232;48.094;11.288;2022-12-07T06:21:19;22.07;;;11.30;;
12332;SDS011;6232;48.094;11.288;2022-12-07T06:24:11;19.17;;;12.13;;
12332;SDS011;6232;48.094;11.288;2022-12-07T06:26:56;16.53;;;11.93;;
12332;SDS011;6232;48.094;11.288;2022-12-07T06:29:45;21.33;;;11.60;;
12332;SDS011;6232;48.094;11.288;2022-12-07T06:32:36;18.77;;;11.80;;
12332;SDS011;6232;48.094;11.288;2022-12-07T06:35:21;20.43;;;11.70;;
12332;SDS011;6232;48.094;11.288;2022-12-07T06:38:07;17.87;;;11.53;;
12332;SDS011;6232;48.094;11.288;2022-12-07T06:40:52;19.57;;;13.10;;
12332;SDS011;6232;48.094;11.288;2022-12-07T06:43:38;19.07;;;11.87;;
12332;SDS011;6232;48.094;11.288;2022-12-07T06:46:24;19.60;;;12.30;;
12332;SDS011;6232;48.094;11.288;2022-12-07T06:49:09;15.63;;;11.20;;
12332;SDS011;6232;48.094;11.288;2022-12-07T06:51:55;17.40;;;10.67;;
12332;SDS011;6232;48.094;11.288;2022-12-07T06:54:40;20.57;;;12.17;;
12332;SDS011;6232;48.094;11.288;2022-12-07T06:57:26;22.07;;;13.40;;
12332;SDS011;6232;48.094;11.288;2022-12-07T07:00:12;23.97;;;14.83;;
12332;SDS011;6232;48.094;11.288;2022-12-07T07:02:58;24.37;;;13.13;;
12332;SDS011;6232;48.094;11.288;2022-12-07T07:05:46;25.67;;;13.33;;
12332;SDS011;6232;48.094;11.288;2022-12-07T07:08:32;24.17;;;14.00;;
12332;SDS011;6232;48.094;11.288;2022-12-07T07:11:18;21.70;;;13.57;;
12332;SDS011;6232;48.094;11.288;2022-12-07T07:14:03;19.13;;;12.70;;
12332;SDS011;6232;48.094;11.288;2022-12-07T07:16:49;20.33;;;13.70;;
12332;SDS011;6232;48.094;11.288;2022-12-07T07:19:34;19.37;;;12.37;;
12332;SDS011;6232;48.094;11.288;2022-12-07T07:22:20;27.27;;;14.90;;
12332;SDS011;6232;48.094;11.288;2022-12-07T07:25:06;27.00;;;15.27;;
12332;SDS011;6232;48.094;11.288;2022-12-07T07:27:51;28.03;;;16.00;;
12332;SDS011;6232;48.094;11.288;2022-12-07T07:30:37;20.50;;;12.97;;
12332;SDS011;6232;48.094;11.288;2022-12-07T07:33:22;28.77;;;15.50;;
12332;SDS011;6232;48.094;11.288;2022-12-07T07:36:08;23.67;;;13.20;;
12332;SDS011;6232;48.094;11.288;2022-12-07T07:38:53;25.03;;;14.27;;
12332;SDS011;6232;48.094;11.288;2022-12-07T07:41:39;26.20;;;14.83;;
12332;SDS011;6232;48.094;11.288;2022-12-07T07:44:24;27.37;;;15.40;;
12332;SDS011;6232;48.094;11.288;2022-12-07T07:47:10;29.07;;;15.93;;
12332;SDS011;6232;48.094;11.288;2022-12-07T07:49:56;29.63;;;15.60;;
12332;SDS011;6232;48.094;11.288;2022-12-07T07:52:42;24.93;;;14.33;;
12332;SDS011;6232;48.094;11.288;2022-12-07T07:55:28;27.77;;;15.83;;
12332;SDS011;6232;48.094;11.288;2022-12-07T07:58:14;29.70;;;15.17;;
12332;SDS011;6232;48.094;11.288;2022-12-07T08:01:06;30.93;;;17.83;;
12332;SDS011;6232;48.094;11.288;2022-12-07T08:03:51;27.67;;;15.47;;
12332;SDS011;6232;48.094;11.288;2022-12-07T08:06:37;32.93;;;18.73;;
12332;SDS011;6232;48.094;11.288;2022-12-07T08:09:22;32.93;;;16.17;;
12332;SDS011;6232;48.094;11.288;2022-12-07T08:12:08;28.13;;;16.37;;
12332;SDS011;6232;48.094;11.288;2022-12-07T08:14:54;30.63;;;16.80;;
12332;SDS011;6232;48.094;11.288;2022-12-07T08:17:39;33.80;;;16.87;;
12332;SDS011;6232;48.094;11.288;2022-12-07T08:20:25;32.40;;;17.83;;
12332;SDS011;6232;48.094;11.288;2022-12-07T08:23:11;29.00;;;15.87;;
12332;SDS011;6232;48.094;11.288;2022-12-07T08:26:15;31.60;;;18.17;;
12332;SDS011;6232;48.094;11.288;2022-12-07T08:29:01;29.53;;;15.57;;
12332;SDS011;6232;48.094;11.288;2022-12-07T08:31:46;29.10;;;17.00;;
12332;SDS011;6232;48.094;11.288;2022-12-07T08:34:32;27.07;;;15.50;;
12332;SDS011;6232;48.094;11.288;2022-12-07T08:37:17;28.13;;;15.13;;
12332;SDS011;6232;48.094;11.288;2022-12-07T08:40:04;26.13;;;14.10;;
12332;SDS011;6232;48.094;11.288;2022-12-07T08:42:50;26.70;;;15.67;;
12332;SDS011;6232;48.094;11.288;2022-12-07T08:45:36;30.17;;;17.63;;
12332;SDS011;6232;48.094;11.288;2022-12-07T08:48:21;25.13;;;15.20;;
12332;SDS011;6232;48.094;11.288;2022-12-07T08:51:09;30.20;;;17.60;;
12332;SDS011;6232;48.094;11.288;2022-12-07T08:53:55;27.97;;;17.27;;
12332;SDS011;6232;48.094;11.288;2022-12-07T08:56:47;28.33;;;17.40;;
12332;SDS011;6232;48.094;11.288;2022-12-07T08:59:36;26.43;;;15.50;;
12332;SDS011;6232;48.094;11.288;2022-12-07T09:02:22;27.83;;;16.27;;
12332;SDS011;6232;48.094;11.288;2022-12-07T09:05:07;29.67;;;14.73;;
12332;SDS011;6232;48.094;11.288;2022-12-07T09:07:54;31.00;;;17.57;;
12332;SDS011;6232;48.094;11.288;2022-12-07T09:10:40;28.60;;;15.13;;
12332;SDS011;6232;48.094;11.288;2022-12-07T09:13:26;26.20;;;16.40;;
12332;SDS011;6232;48.094;11.288;2022-12-07T09:16:14;25.60;;;16.23;;
12332;SDS011;6232;48.094;11.288;2022-12-07T09:18:59;20.93;;;12.70;;
12332;SDS011;6232;48.094;11.288;2022-12-07T09:21:45;24.30;;;13.50;;
12332;SDS011;6232;48.094;11.288;2022-12-07T09:24:31;29.40;;;15.73;;
12332;SDS011;6232;48.094;11.288;2022-12-07T09:27:16;23.10;;;14.57;;
12332;SDS011;6232;48.094;11.288;2022-12-07T09:30:04;21.07;;;14.00;;
12332;SDS011;6232;48.094;11.288;2022-12-07T09:32:50;18.77;;;11.30;;
12332;SDS011;6232;48.094;11.288;2022-12-07T09:35:35;22.00;;;13.97;;
12332;SDS011;6232;48.094;11.288;2022-12-07T09:38:21;23.30;;;12.23;;
12332;SDS011;6232;48.094;11.288;2022-12-07T09:41:06;20.33;;;12.37;;
12332;SDS011;6232;48.094;11.288;2022-12-07T09:43:53;18.67;;;11.63;;
12332;SDS011;6232;48.094;11.288;2022-12-07T09:46:41;18.47;;;12.07;;
12332;SDS011;6232;48.094;11.288;2022-12-07T09:49:28;17.77;;;11.10;;
12332;SDS011;6232;48.094;11.288;2022-12-07T09:52:33;15.20;;;10.23;;
12332;SDS011;6232;48.094;11.288;2022-12-07T09:55:19;15.30;;;9.70;;
12332;SDS011;6232;48.094;11.288;2022-12-07T09:58:11;15.93;;;9.87;;
12332;SDS011;6232;48.094;11.288;2022-12-07T10:01:09;18.17;;;10.37;;
12332;SDS011;6232;48.094;11.288;2022-12-07T10:04:09;16.23;;;10.27;;
12332;SDS011;6232;48.094;11.288;2022-12-07T10:06:55;17.20;;;10.40;;
12332;SDS011;6232;48.094;11.288;2022-12-07T10:09:41;16.93;;;10.50;;
12332;SDS011;6232;48.094;11.288;2022-12-07T10:12:28;19.07;;;11.93;;
12332;SDS011;6232;48.094;11.288;2022-12-07T10:15:13;14.63;;;9.87;;
12332;SDS011;6232;48.094;11.288;2022-12-07T10:18:00;17.53;;;11.27;;
12332;SDS011;6232;48.094;11.288;2022-12-07T10:20:46;18.53;;;10.30;;
12332;SDS011;6232;48.094;11.288;2022-12-07T10:23:32;17.40;;;10.43;;
12332;SDS011;6232;48.094;11.288;2022-12-07T10:35:19;12.20;;;9.23;;
12332;SDS011;6232;48.094;11.288;2022-12-07T10:38:07;12.53;;;9.17;;
12332;SDS011;6232;48.094;11.288;2022-12-07T10:41:07;14.87;;;9.77;;
12332;SDS011;6232;48.094;11.288;2022-12-07T10:43:54;16.63;;;9.37;;
12332;SDS011;6232;48.094;11.288;2022-12-07T10:46:52;11.50;;;7.83;;
12332;SDS011;6232;48.094;11.288;2022-12-07T10:49:46;13.43;;;9.00;;
12332;SDS011;6232;48.094;11.288;2022-12-07T10:52:44;14.07;;;9.70;;
12332;SDS011;6232;48.094;11.288;2022-12-07T11:01:42;16.93;;;10.13;;
12332;SDS011;6232;48.094;11.288;2022-12-07T11:04:39;12.33;;;8.57;;
12332;SDS011;6232;48.094;11.288;2022-12-07T11:10:20;13.97;;;9.87;;
12332;SDS011;6232;48.094;11.288;2022-12-07T11:19:05;10.77;;;8.70;;
12332;SDS011;6232;48.094;11.288;2022-12-07T11:21:57;12.73;;;9.17;;
12332;SDS011;6232;48.094;11.288;2022-12-07T11:25:02;12.70;;;7.07;;
12332;SDS011;6232;48.094;11.288;2022-12-07T11:28:01;11.60;;;8.23;;
12332;SDS011;6232;48.094;11.288;2022-12-07T11:34:10;13.57;;;7.93;;
12332;SDS011;6232;48.094;11.288;2022-12-07T11:37:00;14.30;;;8.60;;
12332;SDS011;6232;48.094;11.288;2022-12-07T11:39:49;9.33;;;7.60;;
12332;SDS011;6232;48.094;11.288;2022-12-07T11:42:37;10.83;;;8.60;;
12332;SDS011;6232;48.094;11.288;2022-12-07T11:45:29;11.90;;;8.23;;
12332;SDS011;6232;48.094;11.288;2022-12-07T11:48:18;12.77;;;9.13;;
12332;SDS011;6232;48.094;11.288;2022-12-07T11:51:07;10.03;;;7.23;;
12332;SDS011;6232;48.094;11.288;2022-12-07T11:54:29;13.00;;;7.47;;
12332;SDS011;6232;48.094;11.288;2022-12-07T11:57:09;10.57;;;7.67;;
12332;SDS011;6232;48.094;11.288;2022-12-07T11:59:59;14.17;;;8.10;;
12332;SDS011;6232;48.094;11.288;2022-12-07T12:02:58;7.53;;;6.40;;
12332;SDS011;6232;48.094;11.288;2022-12-07T12:05:45;10.87;;;7.27;;
12332;SDS011;6232;48.094;11.288;2022-12-07T12:08:32;10.70;;;6.47;;
12332;SDS011;6232;48.094;11.288;2022-12-07T12:11:24;10.73;;;7.37;;
12332;SDS011;6232;48.094;11.288;2022-12-07T12:20:29;12.70;;;7.30;;
12332;SDS011;6232;48.094;11.288;2022-12-07T12:23:23;11.40;;;6.93;;
12332;SDS011;6232;48.094;11.288;2022-12-07T12:26:30;8.43;;;7.30;;
12332;SDS011;6232;48.094;11.288;2022-12-07T12:29:26;9.30;;;6.40;;
12332;SDS011;6232;48.094;11.288;2022-12-07T12:35:33;8.10;;;6.33;;
12332;SDS011;6232;48.094;11.288;2022-12-07T12:47:04;6.87;;;5.23;;
12332;SDS011;6232;48.094;11.288;2022-12-07T12:53:11;6.40;;;5.53;;
12332;SDS011;6232;48.094;11.288;2022-12-07T12:56:10;9.57;;;5.47;;
12332;SDS011;6232;48.094;11.288;2022-12-07T13:08:15;7.50;;;5.20;;
12332;SDS011;6232;48.094;11.288;2022-12-07T13:17:12;6.50;;;5.30;;
12332;SDS011;6232;48.094;11.288;2022-12-07T13:21:38;9.83;;;5.70;;
12332;SDS011;6232;48.094;11.288;2022-12-07T13:23:24;8.90;;;6.03;;
12332;SDS011;6232;48.094;11.288;2022-12-07T13:26:17;6.90;;;5.70;;
12332;SDS011;6232;48.094;11.288;2022-12-07T13:31:52;11.30;;;5.67;;
12332;SDS011;6232;48.094;11.288;2022-12-07T13:34:40;7.67;;;5.37;;
12332;SDS011;6232;48.094;11.288;2022-12-07T13:37:26;11.07;;;4.87;;
12332;SDS011;6232;48.094;11.288;2022-12-07T13:40:20;8.53;;;4.60;;
12332;SDS011;6232;48.094;11.288;2022-12-07T13:43:14;9.83;;;5.10;;
12332;SDS011;6232;48.094;11.288;2022-12-07T13:46:00;7.03;;;4.50;;
12332;SDS011;6232;48.094;11.288;2022-12-07T13:48:47;6.17;;;4.13;;
12332;SDS011;6232;48.094;11.288;2022-12-07T13:51:34;5.80;;;3.70;;
12332;SDS011;6232;48.094;11.288;2022-12-07T13:54:20;7.53;;;4.50;;
12332;SDS011;6232;48.094;11.288;2022-12-07T13:57:06;8.73;;;4.47;;
12332;SDS011;6232;48.094;11.288;2022-12-07T13:59:51;10.73;;;4.57;;
12332;SDS011;6232;48.094;11.288;2022-12-07T14:02:53;5.27;;;4.20;;
12332;SDS011;6232;48.094;11.288;2022-12-07T14:05:40;4.70;;;3.90;;
12332;SDS011;6232;48.094;11.288;2022-12-07T14:08:26;6.07;;;4.27;;
12332;SDS011;6232;48.094;11.288;2022-12-07T14:11:18;8.50;;;4.50;;
12332;SDS011;6232;48.094;11.288;2022-12-07T14:14:04;8.27;;;4.37;;
12332;SDS011;6232;48.094;11.288;2022-12-07T14:19:43;4.83;;;4.33;;
12332;SDS011;6232;48.094;11.288;2022-12-07T14:25:21;5.43;;;4.40;;
12332;SDS011;6232;48.094;11.288;2022-12-07T14:28:09;5.73;;;4.43;;
12332;SDS011;6232;48.094;11.288;2022-12-07T14:31:13;8.77;;;6.07;;
12332;SDS011;6232;48.094;11.288;2022-12-07T14:33:59;10.17;;;4.70;;
12332;SDS011;6232;48.094;11.288;2022-12-07T14:36:45;6.30;;;3.80;;
12332;SDS011;6232;48.094;11.288;2022-12-07T14:39:31;6.00;;;5.40;;
12332;SDS011;6232;48.094;11.288;2022-12-07T14:42:16;7.60;;;4.87;;
12332;SDS011;6232;48.094;11.288;2022-12-07T14:45:02;7.77;;;5.33;;
12332;SDS011;6232;48.094;11.288;2022-12-07T14:47:47;7.73;;;5.53;;
12332;SDS011;6232;48.094;11.288;2022-12-07T14:50:35;12.43;;;5.50;;
12332;SDS011;6232;48.094;11.288;2022-12-07T14:53:22;8.47;;;6.43;;
12332;SDS011;6232;48.094;11.288;2022-12-07T14:56:08;10.93;;;5.37;;
12332;SDS011;6232;48.094;11.288;2022-12-07T14:58:54;7.57;;;5.50;;
12332;SDS011;6232;48.094;11.288;2022-12-07T15:01:39;10.17;;;6.00;;
12332;SDS011;6232;48.094;11.288;2022-12-07T15:04:25;10.87;;;5.50;;
12332;SDS011;6232;48.094;11.288;2022-12-07T15:07:15;11.77;;;6.27;;
12332;SDS011;6232;48.094;11.288;2022-12-07T15:10:02;10.07;;;5.53;;
12332;SDS011;6232;48.094;11.288;2022-12-07T15:12:48;10.60;;;5.97;;
12332;SDS011;6232;48.094;11.288;2022-12-07T15:15:33;8.80;;;5.97;;
12332;SDS011;6232;48.094;11.288;2022-12-07T15:18:19;7.57;;;6.07;;
12332;SDS011;6232;48.094;11.288;2022-12-07T15:21:05;12.40;;;6.20;;
12332;SDS011;6232;48.094;11.288;2022-12-07T15:23:51;9.00;;;4.97;;
12332;SDS011;6232;48.094;11.288;2022-12-07T15:26:37;9.40;;;5.43;;
12332;SDS011;6232;48.094;11.288;2022-12-07T15:29:23;8.27;;;5.50;;
12332;SDS011;6232;48.094;11.288;2022-12-07T15:32:09;9.57;;;5.60;;
12332;SDS011;6232;48.094;11.288;2022-12-07T15:34:54;15.23;;;5.43;;
12332;SDS011;6232;48.094;11.288;2022-12-07T15:37:40;7.47;;;5.00;;
12332;SDS011;6232;48.094;11.288;2022-12-07T15:40:25;10.73;;;6.00;;
12332;SDS011;6232;48.094;11.288;2022-12-07T15:43:11;8.47;;;5.20;;
12332;SDS011;6232;48.094;11.288;2022-12-07T15:46:16;7.07;;;4.80;;
12332;SDS011;6232;48.094;11.288;2022-12-07T15:49:02;17.83;;;6.80;;
12332;SDS011;6232;48.094;11.288;2022-12-07T15:51:48;12.90;;;6.40;;
12332;SDS011;6232;48.094;11.288;2022-12-07T15:54:34;11.70;;;6.23;;
12332;SDS011;6232;48.094;11.288;2022-12-07T15:57:19;11.03;;;6.77;;
12332;SDS011;6232;48.094;11.288;2022-12-07T16:00:05;13.43;;;7.93;;
12332;SDS011;6232;48.094;11.288;2022-12-07T16:02:51;10.00;;;5.90;;
12332;SDS011;6232;48.094;11.288;2022-12-07T16:05:37;11.83;;;6.93;;
12332;SDS011;6232;48.094;11.288;2022-12-07T16:08:22;12.10;;;6.47;;
12332;SDS011;6232;48.094;11.288;2022-12-07T16:11:08;12.60;;;6.43;;
12332;SDS011;6232;48.094;11.288;2022-12-07T16:13:53;10.57;;;6.63;;
12332;SDS011;6232;48.094;11.288;2022-12-07T16:16:39;14.17;;;6.50;;
12332;SDS011;6232;48.094;11.288;2022-12-07T16:19:28;13.03;;;8.27;;
12332;SDS011;6232;48.094;11.288;2022-12-07T16:22:13;12.30;;;7.20;;
12332;SDS011;6232;48.094;11.288;2022-12-07T16:24:59;27.73;;;17.87;;
12332;SDS011;6232;48.094;11.288;2022-12-07T16:27:44;17.80;;;8.90;;
12332;SDS011;6232;48.094;11.288;2022-12-07T16:30:30;15.13;;;8.03;;
12332;SDS011;6232;48.094;11.288;2022-12-07T16:33:16;16.73;;;7.10;;
12332;SDS011;6232;48.094;11.288;2022-12-07T16:36:02;9.07;;;5.50;;
12332;SDS011;6232;48.094;11.288;2022-12-07T16:38:48;11.60;;;7.47;;
12332;SDS011;6232;48.094;11.288;2022-12-07T16:41:33;17.47;;;7.97;;
12332;SDS011;6232;48.094;11.288;2022-12-07T16:44:19;13.33;;;8.20;;
12332;SDS011;6232;48.094;11.288;2022-12-07T16:47:05;11.83;;;8.07;;
12332;SDS011;6232;48.094;11.288;2022-12-07T16:49:50;13.50;;;7.87;;
12332;SDS011;6232;48.094;11.288;2022-12-07T16:52:37;13.10;;;8.43;;
12332;SDS011;6232;48.094;11.288;2022-12-07T16:55:22;13.93;;;8.30;;
12332;SDS011;6232;48.094;11.288;2022-12-07T16:58:08;13.20;;;9.27;;
12332;SDS011;6232;48.094;11.288;2022-12-07T17:00:54;14.97;;;9.73;;
12332;SDS011;6232;48.094;11.288;2022-12-07T17:03:39;18.43;;;9.67;;
12332;SDS011;6232;48.094;11.288;2022-12-07T17:06:26;12.90;;;7.77;;
12332;SDS011;6232;48.094;11.288;2022-12-07T17:09:12;14.40;;;8.67;;
12332;SDS011;6232;48.094;11.288;2022-12-07T17:11:58;19.20;;;8.93;;
12332;SDS011;6232;48.094;11.288;2022-12-07T17:14:43;17.30;;;8.13;;
12332;SDS011;6232;48.094;11.288;2022-12-07T17:17:53;10.50;;;7.50;;
12332;SDS011;6232;48.094;11.288;2022-12-07T17:20:39;15.70;;;9.50;;
12332;SDS011;6232;48.094;11.288;2022-12-07T17:23:25;10.63;;;8.20;;
12332;SDS011;6232;48.094;11.288;2022-12-07T17:26:12;12.67;;;8.43;;
12332;SDS011;6232;48.094;11.288;2022-12-07T17:28:59;16.03;;;9.30;;
12332;SDS011;6232;48.094;11.288;2022-12-07T17:31:48;17.20;;;10.60;;
12332;SDS011;6232;48.094;11.288;2022-12-07T17:34:33;15.10;;;9.90;;
12332;SDS011;6232;48.094;11.288;2022-12-07T17:37:19;18.23;;;11.90;;
12332;SDS011;6232;48.094;11.288;2022-12-07T17:40:05;13.00;;;9.50;;
12332;SDS011;6232;48.094;11.288;2022-12-07T17:42:50;15.47;;;9.53;;
12332;SDS011;6232;48.094;11.288;2022-12-07T17:45:36;13.87;;;8.60;;
12332;SDS011;6232;48.094;11.288;2022-12-07T17:48:22;19.10;;;11.60;;
12332;SDS011;6232;48.094;11.288;2022-12-07T17:51:08;18.70;;;9.30;;
12332;SDS011;6232;48.094;11.288;2022-12-07T17:54:12;21.53;;;10.97;;
12332;SDS011;6232;48.094;11.288;2022-12-07T17:56:57;62.23;;;27.23;;
12332;SDS011;6232;48.094;11.288;2022-12-07T17:59:43;42.83;;;19.90;;
12332;SDS011;6232;48.094;11.288;2022-12-07T18:02:29;18.67;;;11.03;;
12332;SDS011;6232;48.094;11.288;2022-12-07T18:05:15;41.57;;;16.63;;
12332;SDS011;6232;48.094;11.288;2022-12-07T18:08:00;18.63;;;9.87;;
12332;SDS011;6232;48.094;11.288;2022-12-07T18:10:46;15.90;;;9.70;;
12332;SDS011;6232;48.094;11.288;2022-12-07T18:13:32;18.80;;;10.50;;
12332;SDS011;6232;48.094;11.288;2022-12-07T18:16:22;19.80;;;10.67;;
12332;SDS011;6232;48.094;11.288;2022-12-07T18:19:09;19.60;;;9.53;;
12332;SDS011;6232;48.094;11.288;2022-12-07T18:21:57;19.33;;;10.70;;